createdAt,value
2018-10-19T00:00:20.791Z,39.73
2018-10-19T00:02:49.258Z,40.17
2018-10-19T00:05:17.901Z,38.03
2018-10-19T00:07:46.287Z,37.80
2018-10-19T00:10:14.811Z,41.23
2018-10-19T00:12:43.300Z,36.37
2018-10-19T00:15:11.987Z,41.93
2018-10-19T00:17:40.455Z,42.77
2018-10-19T00:20:09.480Z,41.10
2018-10-19T00:22:37.948Z,37.20
2018-10-19T00:25:06.961Z,39.57
2018-10-19T00:27:35.462Z,38.17
2018-10-19T00:30:04.156Z,39.53
2018-10-19T00:32:32.620Z,39.23
2018-10-19T00:35:01.193Z,38.23
2018-10-19T00:37:29.650Z,39.17
2018-10-19T00:39:58.151Z,37.23
2018-10-19T00:42:26.590Z,35.30
2018-10-19T00:44:55.207Z,35.77
2018-10-19T00:47:23.709Z,37.37
2018-10-19T00:49:52.229Z,39.10
2018-10-19T00:52:20.818Z,35.63
2018-10-19T00:54:49.273Z,36.97
2018-10-19T00:57:17.774Z,34.90
2018-10-19T00:59:46.275Z,37.40
2018-10-19T01:02:14.766Z,37.53
2018-10-19T01:04:43.233Z,34.23
2018-10-19T01:07:11.724Z,34.30
2018-10-19T01:09:40.223Z,34.90
2018-10-19T01:12:08.733Z,34.07
2018-10-19T01:14:37.199Z,36.83
2018-10-19T01:17:05.782Z,35.03
2018-10-19T01:19:34.304Z,33.37
2018-10-19T01:22:03.118Z,32.63
2018-10-19T01:24:31.705Z,33.00
2018-10-19T01:27:00.306Z,31.90
2018-10-19T01:29:28.768Z,32.33
2018-10-19T01:31:57.296Z,31.83
2018-10-19T01:34:25.791Z,32.43
2018-10-19T01:36:54.277Z,29.73
2018-10-19T01:39:22.751Z,30.07
2018-10-19T01:41:51.243Z,30.10
2018-10-19T01:44:19.679Z,31.53
2018-10-19T01:46:49.569Z,31.23
2018-10-19T01:49:19.296Z,32.03
2018-10-19T01:51:47.819Z,31.77
2018-10-19T01:54:16.314Z,32.20
2018-10-19T01:56:44.793Z,33.90
2018-10-19T01:59:13.314Z,30.87
2018-10-19T02:01:41.751Z,30.73
2018-10-19T02:04:10.226Z,31.23
2018-10-19T02:06:38.718Z,30.23
2018-10-19T02:09:07.796Z,28.53
2018-10-19T02:11:36.390Z,28.27
2018-10-19T02:14:04.998Z,27.87
2018-10-19T02:16:33.497Z,27.87
2018-10-19T02:19:01.934Z,25.37
2018-10-19T02:21:30.428Z,28.03
2018-10-19T02:23:58.887Z,25.63
2018-10-19T02:26:27.402Z,26.60
2018-10-19T02:28:55.850Z,26.73
2018-10-19T02:31:24.361Z,24.93
2018-10-19T02:33:52.856Z,22.07
2018-10-19T02:36:21.450Z,26.33
2018-10-19T02:38:49.986Z,23.90
2018-10-19T02:41:18.486Z,27.07
2018-10-19T02:43:46.937Z,28.33
2018-10-19T02:46:15.449Z,28.80
2018-10-19T02:48:43.933Z,28.67
2018-10-19T02:51:12.515Z,29.23
2018-10-19T02:53:40.886Z,29.10
2018-10-19T02:56:09.378Z,28.13
2018-10-19T02:58:37.827Z,28.50
2018-10-19T03:01:06.336Z,27.90
2018-10-19T03:03:34.808Z,28.97
2018-10-19T03:06:03.858Z,28.57
2018-10-19T03:08:32.395Z,25.67
2018-10-19T03:11:00.964Z,26.93
2018-10-19T03:13:29.321Z,26.80
2018-10-19T03:15:57.821Z,26.43
2018-10-19T03:18:26.295Z,25.63
2018-10-19T03:20:54.814Z,25.47
2018-10-19T03:23:23.265Z,25.40
2018-10-19T03:25:51.791Z,26.50
2018-10-19T03:28:20.251Z,25.97
2018-10-19T03:30:48.794Z,25.07
2018-10-19T03:33:17.247Z,24.67
2018-10-19T03:35:45.791Z,25.83
2018-10-19T03:38:14.240Z,24.77
2018-10-19T03:40:42.743Z,22.53
2018-10-19T03:43:11.226Z,25.20
2018-10-19T03:45:39.720Z,22.67
2018-10-19T03:48:15.889Z,24.67
2018-10-19T03:50:44.531Z,23.83
2018-10-19T03:53:13.175Z,24.70
2018-10-19T03:55:41.610Z,27.00
2018-10-19T03:58:10.149Z,26.77
2018-10-19T04:00:38.808Z,27.77
2018-10-19T04:03:07.504Z,26.13
2018-10-19T04:05:35.966Z,25.57
2018-10-19T04:08:04.447Z,25.23
2018-10-19T04:10:32.926Z,24.97
2018-10-19T04:13:01.454Z,25.10
2018-10-19T04:15:30.088Z,26.57
2018-10-19T04:17:58.607Z,26.40
2018-10-19T04:20:27.488Z,24.90
2018-10-19T04:23:12.345Z,24.57
2018-10-19T04:25:40.902Z,24.47
2018-10-19T04:28:09.355Z,25.40
2018-10-19T04:30:38.196Z,22.37
2018-10-19T04:33:06.912Z,22.17
2018-10-19T04:35:35.445Z,23.53
2018-10-19T04:38:04.082Z,27.10
2018-10-19T04:40:32.595Z,25.80
2018-10-19T04:43:01.934Z,25.20
2018-10-19T04:45:30.506Z,24.80
2018-10-19T04:47:58.944Z,25.40
2018-10-19T04:50:28.179Z,30.70
2018-10-19T04:52:56.821Z,29.70
2018-10-19T04:55:25.287Z,28.57
2018-10-19T04:57:53.717Z,28.33
2018-10-19T05:00:22.460Z,25.67
2018-10-19T05:02:51.671Z,25.53
2018-10-19T05:05:20.358Z,31.67
2018-10-19T05:07:48.766Z,26.47
2018-10-19T05:10:17.320Z,21.97
2018-10-19T05:12:45.843Z,22.07
2018-10-19T05:15:14.268Z,22.70
2018-10-19T05:17:42.727Z,22.23
2018-10-19T05:20:12.376Z,21.60
2018-10-19T05:22:40.747Z,20.77
2018-10-19T05:25:10.970Z,20.03
2018-10-19T05:27:39.418Z,18.83
2018-10-19T05:30:09.795Z,19.77
2018-10-19T05:32:38.642Z,19.30
2018-10-19T05:35:07.616Z,21.23
2018-10-19T05:37:36.736Z,19.87
2018-10-19T05:40:05.960Z,22.17
2018-10-19T05:42:34.406Z,19.37
2018-10-19T05:45:02.894Z,19.73
2018-10-19T05:47:31.343Z,20.37
2018-10-19T05:49:59.847Z,19.83
2018-10-19T05:52:28.294Z,21.73
2018-10-19T05:54:56.812Z,19.70
2018-10-19T05:57:25.260Z,21.43
2018-10-19T05:59:53.757Z,20.93
2018-10-19T06:02:22.364Z,18.53
2018-10-19T06:04:50.648Z,19.20
2018-10-19T06:07:19.159Z,19.37
2018-10-19T06:09:47.612Z,19.43
2018-10-19T06:12:16.090Z,22.13
2018-10-19T06:14:44.566Z,20.17
2018-10-19T06:17:13.128Z,20.97
2018-10-19T06:19:41.526Z,21.17
2018-10-19T06:22:09.970Z,21.90
2018-10-19T06:24:38.482Z,22.40
2018-10-19T06:27:07.074Z,22.67
2018-10-19T06:29:35.919Z,23.10
2018-10-19T06:32:04.402Z,21.43
2018-10-19T06:34:32.883Z,22.20
2018-10-19T06:37:01.351Z,22.77
2018-10-19T06:39:29.806Z,21.33
2018-10-19T06:41:58.279Z,22.80
2018-10-19T06:44:26.746Z,21.83
2018-10-19T06:46:55.313Z,22.03
2018-10-19T06:49:23.766Z,21.50
2018-10-19T06:51:52.257Z,21.03
2018-10-19T06:54:20.744Z,22.70
2018-10-19T06:56:49.195Z,23.17
2018-10-19T06:59:17.683Z,23.23
2018-10-19T07:01:46.143Z,23.33
2018-10-19T07:04:14.590Z,23.53
2018-10-19T07:06:43.056Z,22.53
2018-10-19T07:09:11.499Z,22.90
2018-10-19T07:11:39.970Z,23.33
2018-10-19T07:14:08.504Z,24.13
2018-10-19T07:16:37.046Z,23.70
2018-10-19T07:19:05.997Z,22.30
2018-10-19T07:21:34.430Z,23.30
2018-10-19T07:24:02.894Z,23.47
2018-10-19T07:26:31.389Z,23.17
2018-10-19T07:28:59.917Z,24.00
2018-10-19T07:31:28.316Z,22.80
2018-10-19T07:33:56.761Z,22.93
2018-10-19T07:36:25.304Z,24.93
2018-10-19T07:38:53.755Z,26.27
2018-10-19T07:41:22.259Z,23.67
2018-10-19T07:43:50.686Z,24.00
2018-10-19T07:46:19.186Z,24.50
2018-10-19T07:48:47.642Z,24.43
2018-10-19T07:51:16.107Z,23.47
2018-10-19T07:53:44.572Z,25.10
2018-10-19T07:56:13.166Z,24.30
2018-10-19T07:58:41.547Z,23.87
2018-10-19T08:01:10.130Z,23.43
2018-10-19T08:03:38.503Z,24.00
2018-10-19T08:06:06.980Z,22.53
2018-10-19T08:08:35.434Z,22.27
2018-10-19T08:11:03.993Z,21.87
2018-10-19T08:13:32.419Z,22.63
2018-10-19T08:16:00.882Z,22.23
2018-10-19T08:18:29.345Z,22.80
2018-10-19T08:20:57.830Z,23.43
2018-10-19T08:23:26.292Z,22.03
2018-10-19T08:25:54.806Z,21.67
2018-10-19T08:28:23.614Z,22.23
2018-10-19T08:30:52.135Z,23.93
2018-10-19T08:33:20.600Z,24.93
2018-10-19T08:35:49.113Z,24.13
2018-10-19T08:38:17.570Z,23.27
2018-10-19T08:40:46.055Z,22.73
2018-10-19T08:43:14.577Z,23.03
2018-10-19T08:45:43.093Z,22.73
2018-10-19T08:48:11.545Z,24.83
2018-10-19T08:50:40.015Z,25.67
2018-10-19T08:53:08.511Z,25.07
2018-10-19T08:55:36.973Z,24.53
2018-10-19T08:58:05.618Z,24.17
2018-10-19T09:00:34.053Z,25.93
2018-10-19T09:03:02.872Z,27.13
2018-10-19T09:05:31.342Z,25.87
2018-10-19T09:07:59.794Z,26.80
2018-10-19T09:10:28.270Z,25.23
2018-10-19T09:12:56.881Z,25.70
2018-10-19T09:15:25.364Z,26.13
2018-10-19T09:17:53.836Z,26.50
2018-10-19T09:20:22.359Z,27.40
2018-10-19T09:22:50.819Z,28.33
2018-10-19T09:25:19.346Z,28.37
2018-10-19T09:27:47.803Z,27.10
2018-10-19T09:30:16.294Z,28.00
2018-10-19T09:32:44.774Z,29.10
2018-10-19T09:35:13.646Z,28.57
2018-10-19T09:37:41.981Z,27.63
2018-10-19T09:40:10.511Z,28.33
2018-10-19T09:42:38.936Z,29.37
2018-10-19T09:45:08.148Z,29.13
2018-10-19T09:47:36.590Z,28.00
2018-10-19T09:50:06.148Z,26.80
2018-10-19T09:52:34.585Z,28.17
2018-10-19T09:55:03.193Z,28.67
2018-10-19T09:57:31.594Z,27.57
2018-10-19T10:00:00.081Z,26.53
2018-10-19T10:02:28.572Z,26.60
2018-10-19T10:04:57.179Z,26.33
2018-10-19T10:07:25.615Z,25.57
2018-10-19T10:09:54.122Z,25.83
2018-10-19T10:12:22.567Z,25.13
2018-10-19T10:14:51.147Z,24.63
2018-10-19T10:17:19.531Z,25.73
2018-10-19T10:19:48.047Z,24.93
2018-10-19T10:22:16.623Z,24.37
2018-10-19T10:24:45.102Z,25.73
2018-10-19T10:27:13.523Z,25.60
2018-10-19T10:29:42.107Z,26.07
2018-10-19T10:32:10.640Z,26.10
2018-10-19T10:34:39.180Z,25.70
2018-10-19T10:37:07.750Z,26.03
2018-10-19T10:39:36.286Z,25.50
2018-10-19T10:42:05.117Z,27.50
2018-10-19T10:44:33.849Z,24.93
2018-10-19T10:47:02.406Z,24.83
2018-10-19T10:49:30.932Z,25.00
2018-10-19T10:51:59.413Z,25.27
2018-10-19T10:54:28.051Z,25.33
2018-10-19T10:56:56.494Z,24.57
2018-10-19T10:59:24.964Z,26.00
2018-10-19T11:01:53.508Z,24.17
2018-10-19T11:04:21.986Z,24.33
2018-10-19T11:06:50.486Z,24.63
2018-10-19T11:09:18.938Z,22.47
2018-10-19T11:11:47.425Z,23.87
2018-10-19T11:14:15.907Z,25.57
2018-10-19T11:16:44.412Z,24.93
2018-10-19T11:19:12.907Z,24.70
2018-10-19T11:21:41.456Z,24.50
2018-10-19T11:24:10.106Z,25.07
2018-10-19T11:26:38.541Z,24.77
2018-10-19T11:29:07.047Z,26.33
2018-10-19T11:31:35.569Z,24.53
2018-10-19T11:34:04.209Z,24.03
2018-10-19T11:36:32.654Z,23.70
2018-10-19T11:39:01.114Z,25.83
2018-10-19T11:41:29.638Z,25.97
2018-10-19T11:43:58.106Z,26.60
2018-10-19T11:46:26.622Z,25.30
2018-10-19T11:48:55.198Z,25.97
2018-10-19T11:51:23.654Z,28.00
2018-10-19T11:53:52.119Z,28.30
2018-10-19T11:56:20.617Z,25.53
2018-10-19T11:58:49.109Z,24.47
2018-10-19T12:01:17.777Z,24.27
2018-10-19T12:03:46.328Z,25.70
2018-10-19T12:06:14.727Z,24.47
2018-10-19T12:08:43.187Z,22.33
2018-10-19T12:11:11.670Z,25.17
2018-10-19T12:13:40.119Z,23.20
2018-10-19T12:16:08.688Z,23.07
2018-10-19T12:18:37.073Z,23.63
2018-10-19T12:21:05.757Z,23.97
2018-10-19T12:23:34.289Z,24.50
2018-10-19T12:26:03.201Z,24.47
2018-10-19T12:28:31.691Z,24.87
2018-10-19T12:31:00.239Z,24.87
2018-10-19T12:33:28.717Z,23.63
2018-10-19T12:35:57.190Z,24.03
2018-10-19T12:38:25.659Z,23.40
2018-10-19T12:40:54.172Z,23.27
2018-10-19T12:43:22.607Z,22.70
2018-10-19T12:46:29.457Z,23.63
2018-10-19T12:48:57.928Z,23.80
2018-10-19T12:51:27.699Z,24.63
2018-10-19T12:53:56.219Z,24.13
2018-10-19T12:56:24.723Z,25.03
2018-10-19T12:58:54.059Z,24.47
2018-10-19T13:01:23.608Z,23.53
2018-10-19T13:03:52.115Z,24.23
2018-10-19T13:06:20.731Z,23.70
2018-10-19T13:08:49.215Z,23.73
2018-10-19T13:11:17.671Z,23.20
2018-10-19T13:13:46.152Z,24.60
2018-10-19T13:16:14.706Z,24.43
2018-10-19T13:18:43.156Z,24.67
2018-10-19T13:21:11.987Z,24.43
2018-10-19T13:23:40.600Z,24.07
2018-10-19T13:26:09.269Z,24.80
2018-10-19T13:28:38.078Z,24.80
2018-10-19T13:31:06.792Z,24.07
2018-10-19T13:33:35.489Z,24.57
2018-10-19T13:36:04.326Z,25.27
2018-10-19T13:38:33.061Z,24.43
2018-10-19T13:41:02.428Z,25.43
2018-10-19T13:43:31.088Z,24.13
2018-10-19T13:45:59.654Z,25.37
2018-10-19T13:48:28.085Z,23.97
2018-10-19T13:50:56.769Z,24.07
2018-10-19T13:53:25.184Z,25.33
2018-10-19T13:55:53.609Z,24.30
2018-10-19T13:58:22.127Z,25.50
2018-10-19T14:00:50.597Z,26.23
2018-10-19T14:03:19.207Z,24.97
2018-10-19T14:05:47.763Z,25.13
2018-10-19T14:08:16.267Z,25.87
2018-10-19T14:10:44.727Z,26.10
2018-10-19T14:13:13.221Z,25.57
2018-10-19T14:15:41.682Z,26.67
2018-10-19T14:18:10.169Z,26.20
2018-10-19T14:20:38.626Z,25.97
2018-10-19T14:23:07.149Z,26.00
2018-10-19T14:25:35.599Z,26.00
2018-10-19T14:28:04.125Z,27.03
2018-10-19T14:30:32.584Z,26.93
2018-10-19T14:33:01.219Z,26.60
2018-10-19T14:35:29.615Z,27.77
2018-10-19T14:37:58.159Z,26.53
2018-10-19T14:40:26.626Z,24.57
2018-10-19T14:42:55.185Z,25.77
2018-10-19T14:45:23.733Z,25.60
2018-10-19T14:47:52.224Z,26.57
2018-10-19T14:50:20.671Z,26.77
2018-10-19T14:52:49.132Z,25.63
2018-10-19T14:55:18.668Z,27.70
2018-10-19T14:57:47.125Z,26.17
2018-10-19T15:00:17.069Z,27.20
2018-10-19T15:02:45.635Z,27.03
2018-10-19T15:05:16.969Z,26.67
2018-10-19T15:07:46.027Z,24.77
2018-10-19T15:10:16.768Z,24.87
2018-10-19T15:12:45.314Z,24.10
2018-10-19T15:15:15.918Z,26.87
2018-10-19T15:17:44.690Z,26.63
2018-10-19T15:20:13.710Z,26.13
2018-10-19T15:22:42.251Z,27.83
2018-10-19T15:25:11.403Z,28.37
2018-10-19T15:27:40.799Z,28.77
2018-10-19T15:30:10.701Z,28.90
2018-10-19T15:32:39.129Z,27.57
2018-10-19T15:35:07.881Z,27.43
2018-10-19T15:37:36.371Z,27.27
2018-10-19T15:40:05.184Z,27.13
2018-10-19T15:42:33.800Z,27.13
2018-10-19T15:45:02.480Z,27.07
2018-10-19T15:47:31.771Z,26.43
2018-10-19T15:50:00.252Z,27.57
2018-10-19T15:52:29.074Z,28.37
2018-10-19T15:54:57.651Z,29.23
2018-10-19T15:57:26.225Z,28.80
2018-10-19T15:59:54.748Z,27.67
2018-10-19T16:02:23.246Z,27.43
2018-10-19T16:04:51.721Z,29.03
2018-10-19T16:07:20.229Z,28.00
2018-10-19T16:09:48.822Z,28.07
2018-10-19T16:12:17.346Z,27.97
2018-10-19T16:14:45.797Z,28.03
2018-10-19T16:17:14.291Z,28.87
2018-10-19T16:19:42.932Z,28.10
2018-10-19T16:22:11.454Z,28.67
2018-10-19T16:24:39.908Z,28.60
2018-10-19T16:27:08.460Z,29.40
2018-10-19T16:29:36.895Z,29.37
2018-10-19T16:32:05.982Z,30.87
2018-10-19T16:34:34.468Z,31.13
2018-10-19T16:37:02.945Z,29.00
2018-10-19T16:39:31.397Z,30.87
2018-10-19T16:41:59.919Z,30.53
2018-10-19T16:44:28.423Z,30.73
2018-10-19T16:46:56.979Z,30.30
2018-10-19T16:49:25.537Z,30.63
2018-10-19T16:51:54.667Z,29.80
2018-10-19T16:54:23.161Z,30.73
2018-10-19T16:56:51.701Z,30.17
2018-10-19T16:59:20.319Z,30.10
2018-10-19T17:01:48.772Z,31.27
2018-10-19T17:04:17.411Z,31.13
2018-10-19T17:06:45.891Z,30.97
2018-10-19T17:09:15.675Z,31.27
2018-10-19T17:11:44.154Z,30.43
2018-10-19T17:14:12.807Z,32.03
2018-10-19T17:16:41.286Z,30.53
2018-10-19T17:19:10.056Z,30.97
2018-10-19T17:21:38.553Z,31.80
2018-10-19T17:24:07.155Z,31.73
2018-10-19T17:26:35.799Z,31.10
2018-10-19T17:29:04.952Z,29.63
2018-10-19T17:31:33.541Z,30.20
2018-10-19T17:34:02.146Z,30.50
2018-10-19T17:36:30.700Z,30.60
2018-10-19T17:38:59.199Z,32.20
2018-10-19T17:41:27.668Z,30.97
2018-10-19T17:43:56.142Z,30.87
2018-10-19T17:46:24.657Z,31.47
2018-10-19T17:48:53.191Z,31.43
2018-10-19T17:51:21.695Z,31.83
2018-10-19T17:53:50.211Z,31.80
2018-10-19T17:56:18.656Z,32.50
2018-10-19T17:58:47.102Z,31.57
2018-10-19T18:01:15.590Z,33.37
2018-10-19T18:03:44.043Z,33.07
2018-10-19T18:06:12.590Z,31.83
2018-10-19T18:08:41.057Z,33.67
2018-10-19T18:11:09.672Z,32.53
2018-10-19T18:13:38.144Z,32.20
2018-10-19T18:16:06.973Z,32.57
2018-10-19T18:18:35.438Z,31.90
2018-10-19T18:21:04.089Z,31.53
2018-10-19T18:23:32.674Z,29.57
2018-10-19T18:26:01.381Z,30.10
2018-10-19T18:28:29.864Z,29.60
2018-10-19T18:30:58.469Z,31.47
2018-10-19T18:33:27.042Z,33.53
2018-10-19T18:35:55.585Z,33.60
2018-10-19T18:38:24.718Z,32.17
2018-10-19T18:40:53.427Z,32.50
2018-10-19T18:43:21.930Z,32.87
2018-10-19T18:45:50.407Z,32.73
2018-10-19T18:48:18.847Z,34.27
2018-10-19T18:50:47.386Z,32.00
2018-10-19T18:53:16.074Z,31.00
2018-10-19T18:55:44.640Z,32.30
2018-10-19T18:58:13.158Z,34.43
2018-10-19T19:00:41.745Z,34.37
2018-10-19T19:03:10.521Z,33.00
2018-10-19T19:05:39.047Z,34.63
2018-10-19T19:08:07.569Z,33.27
2018-10-19T19:10:36.022Z,31.90
2018-10-19T19:13:09.852Z,34.40
2018-10-19T19:15:38.422Z,32.97
2018-10-19T19:18:06.894Z,33.30
2018-10-19T19:20:35.493Z,34.07
2018-10-19T19:23:03.998Z,33.40
2018-10-19T19:25:37.590Z,33.43
2018-10-19T19:28:06.095Z,33.17
2018-10-19T19:30:34.839Z,35.60
2018-10-19T19:33:08.698Z,33.63
2018-10-19T19:35:37.200Z,35.50
2018-10-19T19:38:07.605Z,36.30
2018-10-19T19:40:41.526Z,35.77
2018-10-19T19:43:10.103Z,34.33
2018-10-19T19:45:38.638Z,35.93
2018-10-19T19:48:13.101Z,36.33
2018-10-19T19:50:41.610Z,37.83
2018-10-19T19:53:10.133Z,36.53
2018-10-19T19:55:38.678Z,35.20
2018-10-19T19:58:07.193Z,35.30
2018-10-19T20:00:35.693Z,38.07
2018-10-19T20:03:04.278Z,37.17
2018-10-19T20:05:32.825Z,39.97
2018-10-19T20:08:01.304Z,42.50
2018-10-19T20:10:29.831Z,41.43
2018-10-19T20:12:58.352Z,40.63
2018-10-19T20:15:26.895Z,40.23
2018-10-19T20:17:55.353Z,37.83
2018-10-19T20:20:23.887Z,40.53
2018-10-19T20:22:52.376Z,40.00
2018-10-19T20:25:20.899Z,38.07
2018-10-19T20:27:49.385Z,38.87
2018-10-19T20:30:17.868Z,40.80
2018-10-19T20:32:46.317Z,38.63
2018-10-19T20:35:15.023Z,38.17
2018-10-19T20:37:43.514Z,36.33
2018-10-19T20:40:12.018Z,37.23
2018-10-19T20:42:40.491Z,37.40
2018-10-19T20:45:09.088Z,38.13
2018-10-19T20:47:37.551Z,38.13
2018-10-19T20:50:06.194Z,36.90
2018-10-19T20:52:34.576Z,39.13
2018-10-19T20:55:03.095Z,38.93
2018-10-19T20:57:31.562Z,38.50
2018-10-19T21:00:00.080Z,39.30
2018-10-19T21:02:28.598Z,37.87
2018-10-19T21:04:57.217Z,41.27
2018-10-19T21:07:25.741Z,49.07
2018-10-19T21:09:54.198Z,48.80
2018-10-19T21:12:22.678Z,49.90
2018-10-19T21:14:51.204Z,49.03
2018-10-19T21:17:19.686Z,45.40
2018-10-19T21:19:48.251Z,43.53
2018-10-19T21:22:16.756Z,44.07
2018-10-19T21:24:45.293Z,44.13
2018-10-19T21:27:13.781Z,43.93
2018-10-19T21:29:42.316Z,45.40
2018-10-19T21:32:10.832Z,42.10
2018-10-19T21:34:39.297Z,40.77
2018-10-19T21:37:07.787Z,42.30
2018-10-19T21:39:36.314Z,38.60
2018-10-19T21:42:04.876Z,35.43
2018-10-19T21:44:33.378Z,35.03
2018-10-19T21:47:01.909Z,32.10
2018-10-19T21:49:30.468Z,33.00
2018-10-19T21:51:58.983Z,34.80
2018-10-19T21:54:27.506Z,34.27
2018-10-19T21:56:55.976Z,39.70
2018-10-19T21:59:24.462Z,36.80
2018-10-19T22:01:52.929Z,38.23
2018-10-19T22:04:21.619Z,38.23
2018-10-19T22:06:50.109Z,38.73
2018-10-19T22:09:18.594Z,37.17
2018-10-19T22:11:47.097Z,38.83
2018-10-19T22:14:15.606Z,38.67
2018-10-19T22:16:44.069Z,38.27
2018-10-19T22:19:12.644Z,37.17
2018-10-19T22:21:41.521Z,37.70
2018-10-19T22:24:10.643Z,39.10
2018-10-19T22:26:39.511Z,42.10
2018-10-19T22:29:08.112Z,42.63
2018-10-19T22:31:36.621Z,41.30
2018-10-19T22:34:05.199Z,40.20
2018-10-19T22:36:33.662Z,40.47
2018-10-19T22:39:02.143Z,39.17
2018-10-19T22:41:30.630Z,39.40
2018-10-19T22:43:59.068Z,36.70
2018-10-19T22:46:27.567Z,38.17
2018-10-19T22:48:56.019Z,42.53
2018-10-19T22:51:24.539Z,43.33
2018-10-19T22:53:53.029Z,41.90
2018-10-19T22:56:21.524Z,40.40
2018-10-19T22:58:49.971Z,42.93
2018-10-19T23:01:18.493Z,42.07
2018-10-19T23:03:47.051Z,38.70
2018-10-19T23:06:15.576Z,37.20
2018-10-19T23:08:44.105Z,44.23
2018-10-19T23:11:12.656Z,46.90
2018-10-19T23:13:41.120Z,49.27
2018-10-19T23:16:09.652Z,48.40
2018-10-19T23:18:38.099Z,50.13
2018-10-19T23:21:07.021Z,49.50
2018-10-19T23:23:35.521Z,49.77
2018-10-19T23:26:04.012Z,49.00
2018-10-19T23:28:32.510Z,47.47
2018-10-19T23:31:00.981Z,47.43
2018-10-19T23:33:29.478Z,48.53
2018-10-19T23:35:57.934Z,49.90
2018-10-19T23:38:26.446Z,47.83
2018-10-19T23:40:54.936Z,47.27
2018-10-19T23:43:23.407Z,46.87
2018-10-19T23:45:51.842Z,46.57
2018-10-19T23:48:20.358Z,43.37
2018-10-19T23:50:48.790Z,45.30
2018-10-19T23:53:17.297Z,42.77
2018-10-19T23:55:45.843Z,47.17
2018-10-19T23:58:14.353Z,46.13
